createdAt,value
2023-02-11T00:08:17.373Z,81.71
2023-02-11T00:20:17.790Z,82.74
2023-02-11T00:32:18.296Z,84.79
2023-02-11T00:44:18.722Z,84.07
2023-02-11T00:56:19.336Z,80.98
2023-02-11T01:08:19.659Z,85.86
2023-02-11T01:20:20.043Z,82.96
2023-02-11T01:32:20.547Z,87.06
2023-02-11T01:44:21.040Z,84.52
2023-02-11T01:56:21.445Z,81.69
2023-02-11T02:08:21.895Z,82.02
2023-02-11T02:20:22.340Z,86.02
2023-02-11T02:32:22.811Z,83.14
2023-02-11T02:44:23.262Z,86.79
2023-02-11T07:16:24.764Z,81.20
2023-02-11T07:28:25.130Z,80.92
2023-02-11T07:40:25.517Z,79.42
2023-02-11T07:52:25.932Z,77.50
2023-02-11T08:04:26.409Z,76.45
2023-02-11T08:16:26.953Z,75.62
2023-02-11T08:28:27.460Z,74.76
2023-02-11T08:40:27.785Z,74.34
2023-02-11T08:52:28.213Z,73.09
2023-02-11T09:04:28.669Z,67.98
2023-02-11T09:16:29.191Z,65.30
2023-02-11T09:28:29.654Z,64.53
2023-02-11T09:40:29.997Z,61.27
2023-02-11T09:52:30.491Z,60.68
2023-02-11T10:04:30.989Z,58.97
2023-02-11T10:16:31.382Z,49.95
2023-02-11T10:28:31.934Z,44.90
2023-02-11T10:40:32.293Z,44.82
2023-02-11T10:52:32.773Z,39.44
2023-02-11T11:04:33.265Z,41.35
2023-02-11T11:16:33.669Z,36.44
2023-02-11T11:28:34.173Z,38.74
2023-02-11T11:40:34.598Z,31.83
2023-02-11T11:52:35.026Z,32.34
2023-02-11T12:04:35.480Z,28.57
2023-02-11T12:16:35.989Z,28.74
2023-02-11T12:28:36.458Z,28.73
2023-02-11T12:40:36.858Z,35.62
2023-02-11T12:52:37.315Z,35.24
2023-02-11T13:04:37.734Z,31.07
2023-02-11T13:16:38.301Z,30.68
2023-02-11T13:28:38.707Z,30.02
2023-02-11T13:40:39.130Z,32.33
2023-02-11T13:52:39.620Z,32.51
2023-02-11T14:04:40.038Z,33.77
2023-02-11T14:16:40.498Z,34.88
2023-02-11T14:28:40.968Z,35.97
2023-02-11T14:40:41.382Z,36.50
2023-02-11T14:52:41.860Z,38.20
2023-02-11T15:04:42.292Z,38.56
2023-02-11T15:16:42.828Z,43.57
2023-02-11T15:28:43.204Z,46.43
2023-02-11T15:40:43.687Z,50.06
2023-02-11T15:52:44.098Z,53.31
2023-02-11T16:04:44.583Z,56.56
2023-02-11T16:16:44.989Z,57.33
2023-02-11T16:28:45.494Z,58.61
2023-02-11T16:40:45.948Z,59.27
2023-02-11T16:52:46.386Z,58.71
2023-02-11T17:04:46.973Z,60.29
2023-02-11T17:16:47.307Z,61.19
2023-02-11T17:28:47.763Z,61.66
2023-02-11T17:40:48.161Z,63.16
2023-02-11T17:52:48.974Z,64.82
2023-02-11T18:04:49.140Z,65.84
2023-02-11T18:16:49.723Z,65.53
2023-02-11T18:28:49.965Z,67.15
2023-02-11T18:40:50.424Z,67.82
2023-02-11T18:52:50.889Z,70.37
2023-02-11T19:04:51.340Z,69.27
2023-02-11T19:16:51.834Z,67.70
2023-02-11T19:28:52.263Z,68.68
2023-02-11T19:40:52.687Z,70.48
2023-02-11T19:52:53.150Z,69.06
2023-02-11T20:04:53.618Z,70.89
2023-02-11T20:16:54.052Z,73.92
2023-02-11T20:28:54.484Z,71.61
2023-02-11T20:40:54.933Z,74.15
2023-02-11T20:52:55.399Z,70.32
2023-02-11T21:04:55.869Z,71.41
2023-02-11T21:16:56.404Z,72.50
2023-02-11T21:28:56.784Z,74.66
2023-02-11T21:40:57.304Z,74.41
2023-02-11T21:52:57.668Z,74.96
2023-02-11T22:04:58.228Z,72.89
2023-02-11T22:16:58.569Z,70.75
2023-02-11T22:28:59.044Z,73.45
2023-02-11T22:40:59.452Z,72.54
2023-02-11T22:52:59.982Z,76.99
2023-02-11T23:05:00.363Z,74.48
2023-02-11T23:17:00.925Z,73.73
2023-02-11T23:29:01.333Z,72.86
2023-02-11T23:41:01.733Z,73.70
2023-02-11T23:53:02.206Z,74.53
